Scottish Airport Reports

Civil airfields updated at H+20 and H+50
RAF airfields updated at H+50 only

EGPD - Aberdeen
Distance from station: NNE 19mi, 31km
Updated: 19/07/2019 00:20
Clear
Clear
 Wind from SW
Wind: SW 7 mph , 11 km/h
Temperature: 13°C
Dew Point: 9°C
Humidity: 77%
Barometer: 1005 hPa
Clouds: Clear
Visibility: 6 miles , 10 km
2019/07/18 23:20 EGPD 182320Z AUTO 23006KT 9999 NCD 13/09 Q1005
EGPN - Dundee
Distance from station: SW 41mi, 66km
Updated: 18/07/2019 20:20
NOT Current
Few Clouds
Few Clouds
 Wind from W
Wind: W 16 mph , 26 km/h
Temperature: 18°C
Dew Point: 13°C
Humidity: 73%
Barometer: 1004 hPa
Clouds: Few Clouds
Visibility: 6 miles , 10 km
Cloud details: Few Clouds 3000 ft
2019/07/18 19:20 EGPN 181920Z 27014KT 9999 FEW030 18/13 Q1004
 
EGQS - RAF Lossiemouth
Distance from station: NNW 63mi, 102km
Updated: 18/07/2019 23:50
Clear
Clear
 Wind from SW
Wind: SW 7 mph , 11 km/h
Temperature: 12°C
Dew Point: 10°C
Humidity: 88%
Barometer: 1003 hPa
Summary: Clear
Visibility: greater than 7 miles , 10 km
2019/07/18 22:50 EGQS 182250Z 22006KT CAVOK 12/10 Q1003 RMK BLU
EGPE - Inverness
Distance from station: WNW 73mi, 117km
Updated: 19/07/2019 00:20
Clear
Clear
 Wind from SW
Wind: SW 10 mph , 17 km/h
Temperature: 12°C
Dew Point: 10°C
Humidity: 88%
Barometer: 1004 hPa
Clouds: Clear
Visibility: 6 miles , 10 km
2019/07/18 23:20 EGPE 182320Z AUTO 22009KT 9999 NCD 12/10 Q1004
 
EGPH - Edinburgh
Distance from station: SSW 77mi, 125km
Updated: 19/07/2019 00:20
Clear
Clear
 Wind from SW
Wind: SW 7 mph , 11 km/h
Temperature: 12°C
Dew Point: 11°C
Humidity: 94%
Barometer: 1007 hPa
Summary: Clear
Visibility: greater than 7 miles , 10 km
2019/07/18 23:20 EGPH 182320Z 23006KT CAVOK 12/11 Q1007
EGPC - Wick
Distance from station: NNW 107mi, 172km
Updated: 19/07/2019 00:20
Clear
Clear
 Wind from WSW
Wind: WSW 5 mph , 7 km/h
Temperature: 12°C
Dew Point: 11°C
Humidity: 94%
Barometer: 1003 hPa
Clouds: Clear
Visibility: 6 miles , 10 km
2019/07/18 23:20 EGPC 182320Z AUTO 24004KT 200V280 9999 NCD 12/11 Q1003
 
EGPF - Glasgow
Distance from station: SW 107mi, 172km
Updated: 19/07/2019 00:20
Light rain, Thunderstorm
Light rain, Thunderstorm
 Wind from SSW
Wind: SSW 8 mph , 13 km/h
Temperature: 14°C
Dew Point: 13°C
Humidity: 94%
Barometer: 1007 hPa
Summary: Light rain
Clouds: Thunderstorm
Visibility: 6 miles , 10 km
Cloud details: Mostly cloudy 3100 ft
Mostly cloudy 3900 ft
2019/07/18 23:20 EGPF 182320Z AUTO 21007KT 9999 -RA BKN031/// BKN039/// //////CB 14/13 Q1007
EGPK - Prestwick
Distance from station: SW 130mi, 209km
Updated: 19/07/2019 00:20
Partly cloudy
Partly cloudy
 Wind from SSE
Wind: SSE 5 mph , 7 km/h
Temperature: 13°C
Dew Point: 12°C
Humidity: 94%
Barometer: 1007 hPa
Clouds: Partly cloudy
Visibility: 6 miles , 10 km
Cloud details: Few Clouds 3500 ft
Partly cloudy 4500 ft
2019/07/18 23:20 EGPK 182320Z 15004KT 9999 FEW035 SCT045 13/12 Q1007
 
EGPA - Kirkwall, Orkney
Distance from station: N 140mi, 225km
Updated: 19/07/2019 00:20
Clear
Clear
 Wind from SSW
Wind: SSW 7 mph , 11 km/h
Temperature: 11°C
Dew Point: 11°C
Humidity: 100%
Barometer: 1002 hPa
Clouds: Clear
Visibility: 6 miles , 10 km
2019/07/18 23:20 EGPA 182320Z AUTO 21006KT 9999 NCD 11/11 Q1002
EGPO - Stornoway, Outer Hebrides
Distance from station: WNW 169mi, 273km
Updated: 19/07/2019 00:20
Mostly cloudy
Mostly cloudy
 Wind from S
Wind: S 13 mph , 20 km/h
Temperature: 13°C
Dew Point: 12°C
Humidity: 94%
Barometer: 1001 hPa
Clouds: Mostly cloudy
Visibility: 6 miles , 10 km
Cloud details: Few Clouds 2900 ft
Mostly cloudy 3800 ft
2019/07/18 23:20 EGPO 182320Z AUTO 19011KT 9999 FEW029/// BKN038/// 13/12 Q1001
 
EGPI - Islay, Inner Hebrides
Distance from station: WSW 172mi, 276km
Updated: 19/07/2019 00:20
Partly cloudy
Partly cloudy
 Wind from SSW
Wind: SSW 8 mph , 13 km/h
Temperature: 14°C
Dew Point: 12°C
Humidity: 88%
Barometer: 1006 hPa
Clouds: Partly cloudy
Visibility: 6 miles , 10 km
Cloud details: Partly cloudy 2100 ft
Partly cloudy 4400 ft
2019/07/18 23:20 EGPI 182320Z AUTO 20007KT 180V330 9999 SCT021/// SCT044/// 14/12 Q1006
EGPU - Tiree, Inner Hebrides
Distance from station: W 172mi, 276km
Updated: 19/07/2019 00:20
Rain, Partly cloudy
Rain, Partly cloudy
 Wind from WSW
Wind: WSW 15 mph , 24 km/h
Temperature: 13°C
Dew Point: 13°C
Humidity: 100%
Barometer: 1004 hPa
Summary: Rain
Clouds: Partly cloudy
Visibility: 3 miles , 4 km
Cloud details: Partly cloudy 600 ft
Partly cloudy 2400 ft
2019/07/18 23:20 EGPU 182320Z AUTO 24013KT 140V210 4100 RA SCT006/// SCT024/// 13/13 Q1004
 
EGPB - Sumburgh, Shetland
Distance from station: NNE 208mi, 332km
Updated: 19/07/2019 00:20
Clear
Clear
 Wind from S
Wind: S 5 mph , 7 km/h
Temperature: 13°C
Dew Point: 12°C
Humidity: 94%
Barometer: 1002 hPa
Clouds: Clear
Visibility: 6 miles , 10 km
2019/07/18 23:20 EGPB 182320Z AUTO 17004KT 9999 NCD 13/12 Q1002
EGPM - Scatsa, Shetland
Distance from station: NNE 245mi, 392km
Updated: 19/07/2019 00:20
Partly cloudy
Partly cloudy
 Wind from SSE
Wind: SSE 10 mph , 17 km/h
Temperature: 13°C
Dew Point: 11°C
Humidity: 88%
Barometer: 1002 hPa
Clouds: Partly cloudy
Visibility: 6 miles , 10 km
Cloud details: Partly cloudy 4000 ft
2019/07/18 23:20 EGPM 182320Z AUTO 16009KT 9999 SCT040/// 13/11 Q1002
-->